Aérodrome :
LOGIN :

S'inscrire | Disclaimer

   EN    FR    IT 

 










Légende :    VFR   VFR Marginal   IFR   IFR Intensif   IFR Très Intensif
Visi : 
Plafond : 
>= 8 km
>= 3000ft
5 à 8 km
1000 à 3000 ft
1500m à 5 km
500 à 1000 ft
800 à 1500m
200 à 500 ft
< 800m
< 200 ft
Symboles :   Orages  Brouillard  Fortes neiges  Fortes précipitations  Vent > 20 kt
SIGMETs :   Divers  Orages  Givrage  Turbulence  Onde Orograph.  Cendres Volcan.






- Altitude de l'aérodrome : 784 ft
- Code IATA : TZL


LQTZ - Tuzla

DERNIER METAR :
  • 240930Z 30009KT 9999 SCT012 BKN030 10/08 Q1005

METARs EXPIRÉS :
  • 240900Z 29008KT 8000 SCT010 BKN030 10/08 Q1005
  • 240830Z 28007KT 250V320 8000 -RA SCT010 BKN030 10/08 Q1005
  • 240800Z 28006KT 230V310 6000 BKN010 10/08 Q1005
  • 240730Z 30005KT 240V340 8000 SCT010 BKN030 10/08 Q1005
  • 240700Z 29005KT 270V330 8000 SCT010 BKN030 09/08 Q1005
  • 240630Z 24003KT 8000 SCT010 BKN025 09/08 Q1005
  • 240600Z VRB01KT 9999 BKN025 09/08 Q1005
  • 240530Z VRB02KT 9999 BKN025 09/08 Q1005
  • 240500Z VRB02KT 9999 -RA OVC025 08/08 Q1005

TAF COR TAF LQTZ
Valide du 24 à 06h jusqu'au 25 à 06h UTC


240500Z 2406/2506 VRB02KT 9999 SCT017 BKN030 TX12/2413Z TN03/2505Z
TEMPO 2410/2417 30012KT 4000 SHRA FEW027TCU BKN033
TEMPO 2421/2424 2000 BR BKN005
PROB40 2500/2506 0100 FG VV001



MET'MAP, la Météo Aéronautique d'un coup d'oeil ! - Copyright ORBIFLY Décembre 2007 - Disclaimer

ORBIFLY MET'MAP TEAM :

Programmation & Développement : Alexandra Zaïnal
Sur une idée originale de : Baudouin d'Aumeries
Soutien technique & logistique : Manuel Goepfert
Assistance : Marc-Olivier Méhu




SOURCES & CREDITS :

   NOAA